Time;durP1;ratioP1;P1;durP2;ratioP2;P2;SDS_P1;SDS_P2;PMS_P1;PMS_P2;Temp;Humidity;BMP_temperature;BMP_pressure;BME280_temperature;BME280_humidity;BME280_pressure;Samples;Min_cycle;Max_cycle;Signal;HPM_P1;HPM_P2
2021/07/08 00:02:16;;;;;;;;;;;;;;;25.75;55.31;100977.81;1828778;76;20269;-56
2021/07/08 00:04:43;;;;;;;;;;;;;;;25.75;55.35;100978.39;1835649;76;20449;-56
2021/07/08 00:07:10;;;;;;;;;;;;;;;25.76;55.37;100980.81;1795955;78;20213;-56
2021/07/08 00:09:38;;;;;;;;;;;;;;;25.76;55.40;100986.97;1839144;76;21986;-56
2021/07/08 00:12:05;;;;;;;;;;;;;;;25.77;55.42;100976.05;1838898;76;20540;-57
2021/07/08 00:14:31;;;;;;;;;;;;;;;25.77;55.45;100983.84;1848159;76;20126;-56
2021/07/08 00:16:57;;;;;;;;;;;;;;;25.77;55.49;100975.48;1851281;76;20280;-56
2021/07/08 00:19:23;;;;;;;;;;;;;;;25.78;55.53;100980.48;1848929;76;20267;-56
2021/07/08 00:21:48;;;;;;;;;;;;;;;25.77;55.54;100974.09;1857139;76;21008;-56
2021/07/08 00:24:15;;;;;;;;;;;;;;;25.78;55.58;100976.30;1853861;76;20146;-56
2021/07/08 00:26:41;;;;;;;;;;;;;;;25.79;55.59;100973.75;1846494;76;20171;-56
2021/07/08 00:29:06;;;;;;;;;;;;;;;25.78;55.63;100974.33;1804652;76;20733;-56
2021/07/08 00:31:32;;;;;;;;;;;;;;;25.78;55.65;100974.91;1803535;77;20504;-56
2021/07/08 00:34:01;;;;;;;;;;;;;;;25.78;55.67;100973.51;1759133;79;21010;-56
2021/07/08 00:36:28;;;;;;;;;;;;;;;25.79;55.72;100977.93;1795041;78;20318;-55
2021/07/08 00:38:55;;;;;;;;;;;;;;;25.78;55.73;100978.50;1771758;79;20248;-55
2021/07/08 00:41:21;;;;;;;;;;;;;;;25.79;55.77;100976.53;1754443;79;20687;-55
2021/07/08 00:43:51;;;;;;;;;;;;;;;25.79;55.78;100975.14;1772330;79;20174;-54
2021/07/08 00:46:15;;;;;;;;;;;;;;;25.79;55.80;100974.56;1762808;78;23242;-56
2021/07/08 00:48:40;;;;;;;;;;;;;;;25.80;55.84;100980.34;1789432;78;20137;-55
2021/07/08 00:51:07;;;;;;;;;;;;;;;25.80;55.86;100986.53;1785177;78;20184;-56
2021/07/08 00:53:33;;;;;;;;;;;;;;;25.80;55.87;100996.28;1788220;78;20161;-55
2021/07/08 00:56:01;;;;;;;;;;;;;;;25.79;55.92;100988.50;1783755;78;20191;-57
2021/07/08 00:58:27;;;;;;;;;;;;;;;25.80;55.94;100994.89;1786898;78;21158;-56
2021/07/08 01:00:53;;;;;;;;;;;;;;;25.80;55.96;100992.89;1789034;78;20760;-56
2021/07/08 01:03:18;;;;;;;;;;;;;;;25.80;56.00;100990.10;1788942;78;20286;-54
2021/07/08 01:05:48;;;;;;;;;;;;;;;25.80;56.02;100991.50;1752342;79;20482;-56
2021/07/08 01:08:14;;;;;;;;;;;;;;;25.81;56.06;100992.31;1782251;78;20155;-56
2021/07/08 01:10:43;;;;;;;;;;;;;;;25.80;56.09;100995.67;1786323;78;21049;-56
2021/07/08 01:13:10;;;;;;;;;;;;;;;25.81;56.09;100998.70;1782572;78;20210;-55
2021/07/08 01:15:36;;;;;;;;;;;;;;;25.82;56.12;100992.55;1786203;78;20165;-55
2021/07/08 01:18:02;;;;;;;;;;;;;;;25.81;56.13;100988.95;1785407;78;20207;-57
2021/07/08 01:20:29;;;;;;;;;;;;;;;25.81;56.18;100990.92;1786458;78;20203;-55
2021/07/08 01:22:59;;;;;;;;;;;;;;;25.82;56.19;100996.73;1786089;78;23168;-56
2021/07/08 01:25:26;;;;;;;;;;;;;;;25.82;56.22;101000.91;1783855;78;20228;-56
2021/07/08 01:27:53;;;;;;;;;;;;;;;25.81;56.24;100995.91;1799854;77;20416;-55
2021/07/08 01:30:19;;;;;;;;;;;;;;;25.82;56.26;100992.55;1834947;76;20208;-56
2021/07/08 01:32:45;;;;;;;;;;;;;;;25.81;56.30;100997.31;1834701;77;20177;-56
2021/07/08 01:35:12;;;;;;;;;;;;;;;25.81;56.32;100997.89;1836964;76;21154;-55
2021/07/08 01:37:38;;;;;;;;;;;;;;;25.82;56.33;100998.12;1835278;76;20439;-55
2021/07/08 01:40:08;;;;;;;;;;;;;;;25.82;56.37;100996.73;1836417;77;20150;-56
2021/07/08 01:42:35;;;;;;;;;;;;;;;25.82;56.40;101001.73;1849049;76;20468;-56
2021/07/08 01:45:01;;;;;;;;;;;;;;;25.83;56.42;101005.33;1845046;77;20213;-56
2021/07/08 01:47:27;;;;;;;;;;;;;;;25.82;56.45;100998.94;1841677;76;21084;-57
2021/07/08 01:49:53;;;;;;;;;;;;;;;25.82;56.49;101003.13;1834340;76;20220;-56
2021/07/08 01:52:19;;;;;;;;;;;;;;;25.83;56.50;101001.16;1836277;76;20208;-56
2021/07/08 01:54:44;;;;;;;;;;;;;;;25.82;56.52;101000.34;1838592;77;20199;-56
2021/07/08 01:57:10;;;;;;;;;;;;;;;25.83;56.55;101001.16;1836581;76;20824;-56
2021/07/08 01:59:36;;;;;;;;;;;;;;;25.82;56.57;101000.34;1832972;76;21134;-56
2021/07/08 02:02:03;;;;;;;;;;;;;;;25.82;56.58;101003.70;1835198;77;20535;-56
2021/07/08 02:04:29;;;;;;;;;;;;;;;25.82;56.62;101001.73;1848774;77;20467;-56
2021/07/08 02:06:55;;;;;;;;;;;;;;;25.82;56.63;101001.73;1847601;76;20597;-56
2021/07/08 02:09:20;;;;;;;;;;;;;;;25.83;56.66;101008.12;1846981;76;20235;-56
2021/07/08 02:11:47;;;;;;;;;;;;;;;25.83;56.69;101006.73;1851905;76;21186;-56
2021/07/08 02:14:12;;;;;;;;;;;;;;;25.82;56.70;101011.48;1820696;77;20240;-56
2021/07/08 02:16:38;;;;;;;;;;;;;;;25.83;56.73;101009.52;1831068;77;20238;-56
2021/07/08 02:19:05;;;;;;;;;;;;;;;25.83;56.75;101013.70;1847391;76;20145;-56
2021/07/08 02:21:31;;;;;;;;;;;;;;;25.83;56.77;101015.91;1857960;76;20182;-56
2021/07/08 02:23:57;;;;;;;;;;;;;;;25.83;56.80;101013.70;1851194;76;21056;-56
2021/07/08 02:26:23;;;;;;;;;;;;;;;25.83;56.81;101015.09;1855465;76;20207;-56
2021/07/08 02:28:49;;;;;;;;;;;;;;;25.83;56.83;101017.88;1853147;76;20196;-56
2021/07/08 02:31:16;;;;;;;;;;;;;;;25.83;56.84;101020.09;1846555;76;20162;-56
2021/07/08 02:33:42;;;;;;;;;;;;;;;25.83;56.88;101025.66;1851106;76;20126;-56
2021/07/08 02:36:08;;;;;;;;;;;;;;;25.83;56.90;101023.45;1842386;76;21156;-56
2021/07/08 02:38:34;;;;;;;;;;;;;;;25.83;56.93;101017.30;1839001;76;20203;-55
2021/07/08 02:41:00;;;;;;;;;;;;;;;25.84;56.94;101018.12;1845420;76;20392;-55
2021/07/08 02:43:26;;;;;;;;;;;;;;;25.83;56.96;101024.27;1852243;76;20149;-56
2021/07/08 02:45:52;;;;;;;;;;;;;;;25.83;57.00;101022.88;1839881;76;21730;-56
2021/07/08 02:48:20;;;;;;;;;;;;;;;25.83;57.00;101022.06;1835257;76;20944;-56
2021/07/08 02:50:47;;;;;;;;;;;;;;;25.83;57.03;101024.27;1843704;76;20228;-56
2021/07/08 02:53:13;;;;;;;;;;;;;;;25.83;57.07;101030.42;1844159;76;20527;-55
2021/07/08 02:55:39;;;;;;;;;;;;;;;25.84;57.07;101032.05;1847175;76;22089;-56
2021/07/08 02:58:05;;;;;;;;;;;;;;;25.83;57.09;101030.42;1845414;76;20174;-55
2021/07/08 03:00:31;;;;;;;;;;;;;;;25.84;57.10;101038.41;1844088;76;21032;-55
2021/07/08 03:02:57;;;;;;;;;;;;;;;25.84;57.13;101034.84;1849606;76;20398;-56
2021/07/08 03:05:24;;;;;;;;;;;;;;;25.87;57.14;101045.28;1843693;76;20617;-55
2021/07/08 03:07:50;;;;;;;;;;;;;;;25.89;57.16;101047.13;1840914;76;20695;-56
2021/07/08 03:10:17;;;;;;;;;;;;;;;25.92;57.21;101053.42;1845852;76;20138;-56
2021/07/08 03:12:43;;;;;;;;;;;;;;;25.95;57.26;101057.48;1849359;76;21055;-55
2021/07/08 03:15:10;;;;;;;;;;;;;;;25.98;57.32;101052.02;1841377;76;20209;-55
2021/07/08 03:17:36;;;;;;;;;;;;;;;26.02;57.33;101059.91;1850480;76;20385;-55
2021/07/08 03:20:06;;;;;;;;;;;;;;;26.07;57.36;101054.69;1836913;75;20467;-55
2021/07/08 03:22:32;;;;;;;;;;;;;;;26.11;57.36;101059.22;1846011;76;20188;-56
2021/07/08 03:24:58;;;;;;;;;;;;;;;26.15;57.37;101055.14;1844986;76;21128;-56
2021/07/08 03:27:23;;;;;;;;;;;;;;;26.19;57.35;101059.67;1843399;76;20190;-56
2021/07/08 03:29:49;;;;;;;;;;;;;;;26.25;57.36;101054.72;1808022;76;20256;-55
2021/07/08 03:32:15;;;;;;;;;;;;;;;26.27;57.34;101055.98;1802643;78;20180;-54
2021/07/08 03:34:41;;;;;;;;;;;;;;;26.30;57.32;101056.70;1800129;78;20301;-56
2021/07/08 03:37:07;;;;;;;;;;;;;;;26.32;57.27;101055.75;1793783;78;21132;-55
2021/07/08 03:39:32;;;;;;;;;;;;;;;26.34;57.24;101059.59;1800982;78;20454;-55
2021/07/08 03:41:58;;;;;;;;;;;;;;;26.35;57.17;101062.02;1782964;78;20156;-55
2021/07/08 03:44:24;;;;;;;;;;;;;;;26.35;57.15;101060.62;1824582;77;20228;-55
2021/07/08 03:46:51;;;;;;;;;;;;;;;26.34;57.12;101062.38;1822241;77;20141;-55
2021/07/08 03:49:17;;;;;;;;;;;;;;;26.33;57.07;101060.17;1824694;77;21054;-55
2021/07/08 03:51:43;;;;;;;;;;;;;;;26.32;57.07;101066.91;1829748;77;20727;-55
2021/07/08 03:54:09;;;;;;;;;;;;;;;26.32;57.05;101068.30;1829583;77;20240;-56
2021/07/08 03:56:34;;;;;;;;;;;;;;;26.30;57.03;101076.80;1827095;77;20198;-56
2021/07/08 03:59:00;;;;;;;;;;;;;;;26.28;57.05;101070.16;1822577;77;20220;-58
2021/07/08 04:01:26;;;;;;;;;;;;;;;26.28;57.07;101081.90;1827290;77;21054;-53
2021/07/08 04:03:53;;;;;;;;;;;;;;;26.25;57.06;101077.84;1819763;77;20164;-60
2021/07/08 04:06:19;;;;;;;;;;;;;;;26.25;57.07;101079.81;1794044;77;20122;-58
2021/07/08 04:08:45;;;;;;;;;;;;;;;26.24;57.08;101080.98;1816581;77;20531;-57
2021/07/08 04:11:10;;;;;;;;;;;;;;;26.20;57.10;101073.89;1822906;77;20753;-57
2021/07/08 04:13:36;;;;;;;;;;;;;;;26.19;57.11;101070.83;1816632;77;21866;-56
2021/07/08 04:16:03;;;;;;;;;;;;;;;26.17;57.13;101078.75;1825900;77;20172;-56
2021/07/08 04:18:28;;;;;;;;;;;;;;;26.16;57.18;101082.70;1825944;77;20226;-57
2021/07/08 04:20:54;;;;;;;;;;;;;;;26.14;57.21;101086.40;1836418;77;20184;-56
2021/07/08 04:23:20;;;;;;;;;;;;;;;26.13;57.22;101087.58;1818657;77;20745;-57
2021/07/08 04:25:46;;;;;;;;;;;;;;;26.12;57.25;101089.31;1833666;77;22014;-57
2021/07/08 04:28:12;;;;;;;;;;;;;;;26.11;57.28;101094.08;1819886;77;21695;-57
2021/07/08 04:30:40;;;;;;;;;;;;;;;26.10;57.30;101092.44;1827879;77;20259;-56
2021/07/08 04:33:06;;;;;;;;;;;;;;;26.10;57.33;101097.20;1833095;77;20387;-57
2021/07/08 04:35:39;;;;;;;;;;;;;;;26.08;57.35;101096.17;1827449;76;20259;-56
2021/07/08 04:38:08;;;;;;;;;;;;;;;26.07;57.38;101098.72;1842541;77;21051;-57
2021/07/08 04:40:34;;;;;;;;;;;;;;;26.07;57.46;101101.52;1830890;77;20188;-57
2021/07/08 04:43:00;;;;;;;;;;;;;;;26.07;57.52;101102.91;1818921;76;20146;-57
2021/07/08 04:45:26;;;;;;;;;;;;;;;26.05;57.53;101103.85;1841910;77;20445;-56
2021/07/08 04:47:52;;;;;;;;;;;;;;;26.06;57.57;101108.82;1840533;76;20158;-59
2021/07/08 04:50:20;;;;;;;;;;;;;;;26.05;57.58;101112.22;1823146;76;21382;-60
2021/07/08 04:52:46;;;;;;;;;;;;;;;26.05;57.59;101119.77;1842633;76;20404;-54
2021/07/08 04:55:13;;;;;;;;;;;;;;;26.04;57.60;101120.91;1833661;77;20147;-56
2021/07/08 04:57:39;;;;;;;;;;;;;;;26.04;57.64;101118.95;1828402;77;21501;-57
2021/07/08 05:00:08;;;;;;;;;;;;;;;26.03;57.65;101117.31;1800127;77;20759;-52
2021/07/08 05:02:36;;;;;;;;;;;;;;;26.03;57.72;101120.10;1850465;76;21065;-57
2021/07/08 05:05:01;;;;;;;;;;;;;;;26.02;57.73;101117.64;1790779;77;20382;-58
2021/07/08 05:07:27;;;;;;;;;;;;;;;26.02;57.75;101120.44;1830944;76;20160;-57
2021/07/08 05:09:53;;;;;;;;;;;;;;;26.01;57.75;101115.47;1830803;77;20229;-58
2021/07/08 05:12:19;;;;;;;;;;;;;;;26.01;57.80;101115.47;1826424;77;20172;-58
2021/07/08 05:14:46;;;;;;;;;;;;;;;26.01;57.82;101122.44;1828409;76;21049;-56
2021/07/08 05:17:12;;;;;;;;;;;;;;;26.01;57.83;101127.20;1817702;77;20189;-57
2021/07/08 05:19:38;;;;;;;;;;;;;;;26.00;57.86;101127.77;1825594;77;20257;-57
2021/07/08 05:22:04;;;;;;;;;;;;;;;26.00;57.88;101129.17;1825647;77;20168;-57
2021/07/08 05:24:31;;;;;;;;;;;;;;;26.00;57.88;101129.74;1814133;77;20176;-57
2021/07/08 05:26:56;;;;;;;;;;;;;;;26.00;57.89;101133.92;1803864;78;21225;-56
2021/07/08 05:29:23;;;;;;;;;;;;;;;26.00;57.90;101138.11;1810586;77;20305;-57
2021/07/08 05:31:49;;;;;;;;;;;;;;;26.00;57.91;101145.08;1830351;77;20190;-57
2021/07/08 05:34:15;;;;;;;;;;;;;;;25.99;57.92;101147.05;1827098;77;20187;-56
2021/07/08 05:36:41;;;;;;;;;;;;;;;25.99;57.97;101149.84;1828647;77;20205;-57
2021/07/08 05:39:07;;;;;;;;;;;;;;;25.99;57.97;101159.59;1840823;75;21032;-57
2021/07/08 05:41:33;;;;;;;;;;;;;;;25.99;58.01;101166.56;1845032;75;20752;-58
2021/07/08 05:43:59;;;;;;;;;;;;;;;26.00;58.02;101172.38;1811146;77;20156;-57
2021/07/08 05:46:26;;;;;;;;;;;;;;;26.00;58.03;101167.38;1814100;78;22150;-57
2021/07/08 05:48:53;;;;;;;;;;;;;;;25.99;58.03;101170.75;1843898;76;20761;-57
2021/07/08 05:51:19;;;;;;;;;;;;;;;25.99;58.05;101174.93;1855396;76;21042;-57
2021/07/08 05:53:45;;;;;;;;;;;;;;;25.99;58.09;101174.93;1853563;76;20438;-57
2021/07/08 05:56:11;;;;;;;;;;;;;;;25.99;58.09;101181.90;1848252;75;20237;-57
2021/07/08 05:58:37;;;;;;;;;;;;;;;25.98;58.11;101175.27;1845048;76;20118;-58
2021/07/08 06:01:03;;;;;;;;;;;;;;;26.01;58.13;101176.80;1854042;76;20264;-57
2021/07/08 06:03:29;;;;;;;;;;;;;;;26.03;58.14;101178.66;1852976;76;21157;-57
2021/07/08 06:05:55;;;;;;;;;;;;;;;26.07;58.19;101179.59;1855036;76;20138;-57
2021/07/08 06:08:21;;;;;;;;;;;;;;;26.10;58.26;101175.28;1841912;76;20256;-57
2021/07/08 06:10:47;;;;;;;;;;;;;;;26.14;58.29;101177.64;1857081;75;20199;-57
2021/07/08 06:13:13;;;;;;;;;;;;;;;26.16;58.31;101169.15;1845388;76;20789;-58
2021/07/08 06:15:40;;;;;;;;;;;;;;;26.21;58.33;101173.14;1842606;76;21876;-57
2021/07/08 06:18:06;;;;;;;;;;;;;;;26.26;58.35;101174.89;1852068;76;20126;-58
2021/07/08 06:20:33;;;;;;;;;;;;;;;26.30;58.35;101175.25;1849433;76;20226;-57
2021/07/08 06:22:59;;;;;;;;;;;;;;;26.34;58.35;101174.78;1853929;75;20138;-57
2021/07/08 06:25:30;;;;;;;;;;;;;;;26.39;58.35;101184.90;1846903;75;20484;-57
2021/07/08 06:27:53;;;;;;;;;;;;;;;26.41;58.34;101175.59;1826125;76;21141;-59
2021/07/08 06:30:19;;;;;;;;;;;;;;;26.43;58.32;101177.46;1837098;76;20767;-57
2021/07/08 06:32:45;;;;;;;;;;;;;;;26.45;58.28;101177.09;1840588;76;20160;-57
2021/07/08 06:35:14;;;;;;;;;;;;;;;26.45;58.24;101182.09;1840545;76;20129;-57
2021/07/08 06:37:40;;;;;;;;;;;;;;;26.46;58.21;101185.13;1839480;76;20414;-58
2021/07/08 06:40:08;;;;;;;;;;;;;;;26.47;58.16;101177.57;1838978;76;21037;-57
2021/07/08 06:42:34;;;;;;;;;;;;;;;26.46;58.14;101185.70;1838829;76;20374;-57
2021/07/08 06:45:00;;;;;;;;;;;;;;;26.44;58.10;101183.86;1839155;76;20164;-57
2021/07/08 06:47:32;;;;;;;;;;;;;;;26.43;58.10;101181.64;1839989;76;20222;-59
2021/07/08 06:49:54;;;;;;;;;;;;;;;26.42;58.07;101175.01;1836980;76;20199;-57
2021/07/08 06:52:20;;;;;;;;;;;;;;;26.40;58.11;101180.92;1840254;76;21209;-58
2021/07/08 06:54:46;;;;;;;;;;;;;;;26.39;58.10;101184.08;1838904;76;20171;-58
2021/07/08 06:57:12;;;;;;;;;;;;;;;26.36;58.11;101188.36;1837920;76;20136;-59
2021/07/08 06:59:37;;;;;;;;;;;;;;;26.34;58.12;101182.34;1840631;76;20159;-58
2021/07/08 07:02:04;;;;;;;;;;;;;;;26.32;58.13;101186.86;1841268;76;20175;-58
2021/07/08 07:04:30;;;;;;;;;;;;;;;26.30;58.16;101189.77;1836822;76;21174;-58
2021/07/08 07:06:56;;;;;;;;;;;;;;;26.29;58.19;101192.32;1837116;76;20756;-58
2021/07/08 07:09:22;;;;;;;;;;;;;;;26.26;58.19;101196.63;1838251;76;20213;-57
2021/07/08 07:11:48;;;;;;;;;;;;;;;26.24;58.19;101201.73;1839196;76;20184;-57
2021/07/08 07:14:14;;;;;;;;;;;;;;;26.23;58.25;101197.88;1837417;76;20215;-58
2021/07/08 07:16:41;;;;;;;;;;;;;;;26.21;58.27;101191.84;1840163;76;21015;-58
2021/07/08 07:19:07;;;;;;;;;;;;;;;26.20;58.29;101199.97;1838932;76;20132;-57
2021/07/08 07:21:33;;;;;;;;;;;;;;;26.18;58.31;101194.70;1841836;76;20136;-57
2021/07/08 07:24:01;;;;;;;;;;;;;;;26.16;58.36;101199.83;1839556;76;20186;-57
2021/07/08 07:26:26;;;;;;;;;;;;;;;26.16;58.36;101204.01;1836583;76;20168;-57
2021/07/08 07:28:52;;;;;;;;;;;;;;;26.14;58.42;101197.95;1837851;76;21018;-57
2021/07/08 07:31:18;;;;;;;;;;;;;;;26.13;58.45;101198.31;1840303;76;20292;-57
2021/07/08 07:33:44;;;;;;;;;;;;;;;26.11;58.47;101200.62;1832314;76;20115;-57
2021/07/08 07:36:10;;;;;;;;;;;;;;;26.11;58.54;101201.44;1818273;77;22067;-57
2021/07/08 07:38:39;;;;;;;;;;;;;;;26.12;58.60;101196.68;1842961;76;20135;-57
2021/07/08 07:41:06;;;;;;;;;;;;;;;26.12;58.59;101205.86;1814267;77;21068;-57
2021/07/08 07:43:32;;;;;;;;;;;;;;;26.11;58.61;101200.62;1824554;77;20179;-55
2021/07/08 07:45:58;;;;;;;;;;;;;;;26.11;58.66;101200.05;1824821;77;20088;-56
2021/07/08 07:48:24;;;;;;;;;;;;;;;26.10;58.66;101199.80;1827900;77;20752;-56
2021/07/08 07:50:50;;;;;;;;;;;;;;;26.10;58.69;101203.98;1828072;77;20218;-56
2021/07/08 07:53:16;;;;;;;;;;;;;;;26.11;58.71;101202.02;1821210;77;21856;-57
2021/07/08 07:55:42;;;;;;;;;;;;;;;26.11;58.74;101199.22;1820757;77;20188;-56
2021/07/08 07:58:08;;;;;;;;;;;;;;;26.10;58.73;101206.77;1826550;77;20690;-56
2021/07/08 08:00:34;;;;;;;;;;;;;;;26.10;58.74;101210.14;1820072;77;22166;-56
2021/07/08 08:03:00;;;;;;;;;;;;;;;26.10;58.78;101203.98;1820687;77;20259;-56
2021/07/08 08:10:41;;;;;;;;;;;;;;;26.09;58.80;101205.17;1821796;77;20200;-56
2021/07/08 08:13:07;;;;;;;;;;;;;;;26.09;58.83;101219.11;1795540;77;20392;-56
2021/07/08 08:15:33;;;;;;;;;;;;;;;26.08;58.83;101203.53;1818242;77;20094;-56
2021/07/08 08:18:02;;;;;;;;;;;;;;;26.09;58.83;101202.95;1824323;77;21945;-57
2021/07/08 08:20:28;;;;;;;;;;;;;;;26.09;58.86;101214.92;1820667;77;20156;-58
2021/07/08 08:22:55;;;;;;;;;;;;;;;26.09;58.87;101214.11;1816361;77;20235;-56
2021/07/08 08:25:21;;;;;;;;;;;;;;;26.11;58.91;101207.02;1822856;77;20128;-55
2021/07/08 08:27:47;;;;;;;;;;;;;;;26.13;58.91;101203.89;1818882;77;20208;-57
2021/07/08 08:30:14;;;;;;;;;;;;;;;26.16;58.94;101206.80;1825658;77;21151;-57
2021/07/08 08:32:41;;;;;;;;;;;;;;;26.20;58.98;101204.98;1822688;77;20378;-54
2021/07/08 08:35:08;;;;;;;;;;;;;;;26.24;58.99;101208.70;1816227;77;20137;-57
2021/07/08 08:37:34;;;;;;;;;;;;;;;26.28;59.02;101207.42;1818418;77;20154;-56
2021/07/08 08:40:00;;;;;;;;;;;;;;;26.32;59.04;101209.17;1818379;77;20414;-56
2021/07/08 08:42:27;;;;;;;;;;;;;;;26.38;59.02;101221.50;1813701;77;21958;-56
2021/07/08 08:44:54;;;;;;;;;;;;;;;26.42;59.02;101215.46;1814048;77;20143;-57
2021/07/08 08:47:20;;;;;;;;;;;;;;;26.47;59.04;101227.22;1815135;77;20416;-56
2021/07/08 08:49:46;;;;;;;;;;;;;;;26.52;58.98;101226.97;1824739;77;22182;-56
2021/07/08 08:52:14;;;;;;;;;;;;;;;26.56;58.96;101220.13;1818171;77;20233;-56
2021/07/08 08:54:41;;;;;;;;;;;;;;;26.58;58.92;101222.80;1823841;77;21844;-56
2021/07/08 08:57:07;;;;;;;;;;;;;;;26.61;58.88;101219.30;1823056;77;20173;-57
2021/07/08 08:59:33;;;;;;;;;;;;;;;26.62;58.81;101227.09;1819039;77;20146;-57
2021/07/08 09:02:11;;;;;;;;;;;;;;;26.62;58.74;101213.95;1814513;77;20382;-56
2021/07/08 09:04:37;;;;;;;;;;;;;;;26.63;58.70;101224.55;1819614;77;20425;-57
2021/07/08 09:07:26;;;;;;;;;;;;;;;26.62;58.65;101224.30;1831838;77;21840;-57
2021/07/08 09:09:54;;;;;;;;;;;;;;;26.63;58.62;101223.14;1827056;77;21598;-56
2021/07/08 09:12:23;;;;;;;;;;;;;;;26.59;58.59;101223.61;1829054;77;20211;-57
2021/07/08 09:14:50;;;;;;;;;;;;;;;26.57;58.60;101234.30;1826368;77;20228;-57
2021/07/08 09:17:18;;;;;;;;;;;;;;;26.58;58.58;101237.33;1834672;77;20188;-57
2021/07/08 09:19:44;;;;;;;;;;;;;;;26.55;58.57;101226.87;1828374;77;21131;-57
2021/07/08 09:22:10;;;;;;;;;;;;;;;26.54;58.56;101226.05;1830366;76;20161;-57
2021/07/08 09:24:36;;;;;;;;;;;;;;;26.53;58.55;101220.80;1819465;77;20157;-57
2021/07/08 09:27:12;;;;;;;;;;;;;;;26.51;58.54;101232.34;1830447;76;20244;-57
2021/07/08 09:29:39;;;;;;;;;;;;;;;26.48;58.58;101228.83;1832952;77;20361;-57
2021/07/08 09:32:12;;;;;;;;;;;;;;;26.46;58.58;101228.38;1826648;77;23164;-57
2021/07/08 09:34:39;;;;;;;;;;;;;;;26.44;58.60;101211.15;1832674;76;20287;-57
2021/07/08 09:37:20;;;;;;;;;;;;;;;26.42;58.63;101215.46;1835978;76;20161;-57
2021/07/08 09:39:54;;;;;;;;;;;;;;;26.40;58.65;101214.41;1838324;77;20944;-57
2021/07/08 09:42:45;;;;;;;;;;;;;;;26.39;58.68;101220.35;1834094;76;20131;-57
2021/07/08 09:45:13;;;;;;;;;;;;;;;26.37;58.68;101222.08;1848609;76;21036;-56
2021/07/08 09:47:43;;;;;;;;;;;;;;;26.36;58.71;101221.84;1859733;76;20166;-57
2021/07/08 09:50:11;;;;;;;;;;;;;;;26.34;58.72;101225.00;1822666;77;20412;-56
2021/07/08 09:52:38;;;;;;;;;;;;;;;26.32;58.71;101225.91;1852486;75;20639;-56
2021/07/08 09:55:15;;;;;;;;;;;;;;;26.31;58.77;101218.70;1850371;75;20129;-56
2021/07/08 09:57:47;;;;;;;;;;;;;;;26.30;58.78;101226.85;1794321;77;21156;-57
2021/07/08 10:00:23;;;;;;;;;;;;;;;26.30;58.80;101215.70;1802556;77;20165;-57
2021/07/08 10:02:50;;;;;;;;;;;;;;;26.30;58.81;101219.06;1827152;77;20136;-57
2021/07/08 10:05:17;;;;;;;;;;;;;;;26.29;58.84;101214.06;1829456;77;20452;-56
2021/07/08 10:07:43;;;;;;;;;;;;;;;26.29;58.85;101208.48;1831039;77;20134;-57
2021/07/08 10:10:10;;;;;;;;;;;;;;;26.29;58.85;101211.84;1833834;77;21118;-57
2021/07/08 10:12:40;;;;;;;;;;;;;;;26.29;58.86;101204.88;1832255;77;20416;-56
2021/07/08 10:15:08;;;;;;;;;;;;;;;26.29;58.88;101200.69;1834579;77;20395;-57
2021/07/08 10:17:36;;;;;;;;;;;;;;;26.29;58.88;101201.50;1828388;76;20572;-57
2021/07/08 10:20:04;;;;;;;;;;;;;;;26.29;58.89;101196.50;1806043;77;20198;-58
2021/07/08 10:22:30;;;;;;;;;;;;;;;26.31;58.89;101184.41;1838270;77;21098;-56
2021/07/08 10:24:56;;;;;;;;;;;;;;;26.29;58.84;101193.14;1834180;77;20151;-57
2021/07/08 10:27:22;;;;;;;;;;;;;;;26.27;58.73;101184.86;1826459;77;20135;-57
2021/07/08 10:29:48;;;;;;;;;;;;;;;26.23;58.64;101190.91;1829268;76;20208;-57
2021/07/08 10:32:15;;;;;;;;;;;;;;;26.19;58.57;101183.78;1826661;76;20170;-57
2021/07/08 10:34:50;;;;;;;;;;;;;;;26.15;58.48;101180.06;1789934;78;22019;-56
2021/07/08 10:37:33;;;;;;;;;;;;;;;26.11;58.40;101188.89;1790220;78;20127;-57
2021/07/08 10:40:00;;;;;;;;;;;;;;;26.08;58.31;101184.02;1791873;78;20140;-56
2021/07/08 10:42:44;;;;;;;;;;;;;;;26.05;58.26;101178.31;1794326;78;20395;-56
2021/07/08 10:45:38;;;;;;;;;;;;;;;26.02;58.18;101170.62;1792433;78;20126;-57
2021/07/08 10:48:16;;;;;;;;;;;;;;;25.99;58.08;101173.53;1794455;78;21066;-57
2021/07/08 10:50:49;;;;;;;;;;;;;;;25.97;57.99;101172.27;1789266;78;21618;-56
2021/07/08 10:53:27;;;;;;;;;;;;;;;25.95;57.91;101176.78;1788836;78;20217;-56
2021/07/08 10:55:58;;;;;;;;;;;;;;;25.91;57.88;101171.09;1792318;78;20444;-57
2021/07/08 10:58:50;;;;;;;;;;;;;;;25.89;57.82;101174.78;1791128;78;20245;-62
2021/07/08 11:01:27;;;;;;;;;;;;;;;25.89;57.77;101178.97;1786864;78;21736;-57
2021/07/08 11:03:58;;;;;;;;;;;;;;;25.89;57.71;101167.00;1797896;78;20359;-58
2021/07/08 11:06:31;;;;;;;;;;;;;;;25.86;57.65;101167.69;1793650;78;20177;-57
2021/07/08 11:09:03;;;;;;;;;;;;;;;25.85;57.58;101169.66;1790443;78;20222;-58
2021/07/08 11:11:35;;;;;;;;;;;;;;;25.83;57.52;101163.64;1777404;78;20177;-57
2021/07/08 11:14:12;;;;;;;;;;;;;;;25.83;57.45;101167.81;1798180;79;21174;-57
2021/07/08 11:16:45;;;;;;;;;;;;;;;25.82;57.38;101170.36;1793555;79;20461;-57
2021/07/08 11:19:15;;;;;;;;;;;;;;;25.81;57.34;101158.16;1781581;78;20209;-57
2021/07/08 11:21:56;;;;;;;;;;;;;;;25.81;57.27;101163.73;1786967;78;20208;-58
2021/07/08 11:24:25;;;;;;;;;;;;;;;25.81;57.20;101169.30;1797195;78;20414;-57
2021/07/08 11:26:57;;;;;;;;;;;;;;;25.81;57.11;101162.33;1783162;78;22115;-57
2021/07/08 11:29:45;;;;;;;;;;;;;;;25.81;57.05;101169.30;1795099;79;20585;-57
2021/07/08 11:32:31;;;;;;;;;;;;;;;25.80;56.97;101158.73;1784208;78;20189;-57
2021/07/08 11:35:07;;;;;;;;;;;;;;;25.81;56.91;101156.76;1817488;77;20494;-57
2021/07/08 11:40:14;;;;;;;;;;;;;;;25.83;56.77;101151.67;1844435;76;21162;-58
2021/07/08 11:42:41;;;;;;;;;;;;;;;25.82;56.70;101149.45;1838434;76;20177;-58
2021/07/08 11:45:10;;;;;;;;;;;;;;;25.83;56.63;101151.67;1845384;76;20166;-63
2021/07/08 11:47:41;;;;;;;;;;;;;;;25.84;56.55;101150.52;1797096;77;20187;-57
2021/07/08 11:50:17;;;;;;;;;;;;;;;25.84;56.50;101151.30;1797000;77;20139;-58
2021/07/08 11:52:43;;;;;;;;;;;;;;;25.84;56.48;101158.27;1823205;77;23219;-58
2021/07/08 11:55:10;;;;;;;;;;;;;;;25.85;56.48;101153.52;1830480;77;20140;-58
2021/07/08 11:57:54;;;;;;;;;;;;;;;25.85;56.43;101148.76;1825068;77;20864;-58
2021/07/08 12:00:40;;;;;;;;;;;;;;;25.86;56.39;101152.36;1830818;77;20416;-57
2021/07/08 12:03:30;;;;;;;;;;;;;;;25.87;56.32;101142.84;1832136;77;20141;-61
2021/07/08 12:05:58;;;;;;;;;;;;;;;25.87;56.22;101147.84;1816282;76;21297;-61
2021/07/08 12:08:26;;;;;;;;;;;;;;;25.88;56.12;101150.06;1823732;77;20475;-57
2021/07/08 12:11:10;;;;;;;;;;;;;;;25.86;56.06;101152.36;1837613;76;20400;-59
2021/07/08 12:13:38;;;;;;;;;;;;;;;25.86;56.00;101157.94;1837702;76;20252;-58
2021/07/08 12:16:06;;;;;;;;;;;;;;;25.85;55.93;101157.70;1846665;76;20412;-59
2021/07/08 12:18:47;;;;;;;;;;;;;;;25.86;55.87;101155.16;1843262;76;21167;-59
2021/07/08 12:21:19;;;;;;;;;;;;;;;25.84;55.82;101151.30;1799859;77;20567;-62
2021/07/08 12:23:45;;;;;;;;;;;;;;;25.85;55.73;101152.94;1818871;77;20145;-59
2021/07/08 12:26:26;;;;;;;;;;;;;;;25.86;55.63;101153.18;1820014;77;20895;-61
2021/07/08 12:29:11;;;;;;;;;;;;;;;25.87;55.58;101148.42;1817643;77;20398;-57
2021/07/08 12:31:53;;;;;;;;;;;;;;;25.89;55.48;101144.12;1818596;77;21112;-59
2021/07/08 12:34:21;;;;;;;;;;;;;;;25.90;55.38;101143.55;1805254;77;20175;-57
2021/07/08 12:36:47;;;;;;;;;;;;;;;25.91;55.30;101141.81;1800695;78;20126;-65
2021/07/08 12:39:18;;;;;;;;;;;;;;;25.93;55.21;101147.63;1805239;78;20691;-58
2021/07/08 12:41:46;;;;;;;;;;;;;;;25.91;55.12;101147.97;1799331;78;20158;-57
2021/07/08 12:44:12;;;;;;;;;;;;;;;25.89;55.06;101146.91;1801601;78;21067;-58
2021/07/08 12:46:38;;;;;;;;;;;;;;;25.90;54.98;101153.30;1800462;78;20175;-57
2021/07/08 12:49:05;;;;;;;;;;;;;;;25.90;54.92;101144.94;1799968;77;20185;-59